sensor_id;sensor_type;location;lat;lon;timestamp;P1;durP1;ratioP1;P2;durP2;ratioP2
74471;SDS011;62920;53.572;10.050;2023-04-03T00:00:40;7.38;;;1.55;;
74471;SDS011;62920;53.572;10.050;2023-04-03T00:03:05;5.03;;;1.40;;
74471;SDS011;62920;53.572;10.050;2023-04-03T00:05:31;6.50;;;1.42;;
74471;SDS011;62920;53.572;10.050;2023-04-03T00:07:56;5.97;;;1.40;;
74471;SDS011;62920;53.572;10.050;2023-04-03T00:10:22;5.38;;;1.40;;
74471;SDS011;62920;53.572;10.050;2023-04-03T00:12:47;10.13;;;1.83;;
74471;SDS011;62920;53.572;10.050;2023-04-03T00:15:13;5.10;;;1.50;;
74471;SDS011;62920;53.572;10.050;2023-04-03T00:17:38;5.38;;;1.38;;
74471;SDS011;62920;53.572;10.050;2023-04-03T00:20:03;7.00;;;1.50;;
74471;SDS011;62920;53.572;10.050;2023-04-03T00:22:29;4.70;;;1.58;;
74471;SDS011;62920;53.572;10.050;2023-04-03T00:24:55;8.93;;;1.77;;
74471;SDS011;62920;53.572;10.050;2023-04-03T00:27:21;5.63;;;1.60;;
74471;SDS011;62920;53.572;10.050;2023-04-03T00:29:46;5.28;;;1.55;;
74471;SDS011;62920;53.572;10.050;2023-04-03T00:32:12;6.72;;;1.20;;
74471;SDS011;62920;53.572;10.050;2023-04-03T00:34:37;5.40;;;1.40;;
74471;SDS011;62920;53.572;10.050;2023-04-03T00:37:03;5.22;;;1.33;;
74471;SDS011;62920;53.572;10.050;2023-04-03T00:39:28;9.73;;;2.00;;
74471;SDS011;62920;53.572;10.050;2023-04-03T00:41:53;5.88;;;1.65;;
74471;SDS011;62920;53.572;10.050;2023-04-03T00:47:05;6.22;;;1.38;;
74471;SDS011;62920;53.572;10.050;2023-04-03T00:49:32;6.85;;;1.52;;
74471;SDS011;62920;53.572;10.050;2023-04-03T00:51:58;3.75;;;1.40;;
74471;SDS011;62920;53.572;10.050;2023-04-03T00:54:24;6.47;;;1.73;;
74471;SDS011;62920;53.572;10.050;2023-04-03T00:56:51;5.28;;;1.42;;
74471;SDS011;62920;53.572;10.050;2023-04-03T00:59:18;7.13;;;1.63;;
74471;SDS011;62920;53.572;10.050;2023-04-03T01:01:52;4.30;;;1.63;;
74471;SDS011;62920;53.572;10.050;2023-04-03T01:04:30;5.00;;;1.55;;
74471;SDS011;62920;53.572;10.050;2023-04-03T01:07:10;5.95;;;1.52;;
74471;SDS011;62920;53.572;10.050;2023-04-03T01:09:43;6.43;;;1.85;;
74471;SDS011;62920;53.572;10.050;2023-04-03T01:14:46;5.35;;;1.42;;
74471;SDS011;62920;53.572;10.050;2023-04-03T01:19:48;5.00;;;1.80;;
74471;SDS011;62920;53.572;10.050;2023-04-03T01:22:49;5.30;;;1.50;;
74471;SDS011;62920;53.572;10.050;2023-04-03T01:25:18;7.35;;;2.08;;
74471;SDS011;62920;53.572;10.050;2023-04-03T01:27:43;4.93;;;1.65;;
74471;SDS011;62920;53.572;10.050;2023-04-03T01:30:09;10.82;;;1.60;;
74471;SDS011;62920;53.572;10.050;2023-04-03T01:32:36;7.85;;;1.45;;
74471;SDS011;62920;53.572;10.050;2023-04-03T01:35:01;5.90;;;1.60;;
74471;SDS011;62920;53.572;10.050;2023-04-03T01:37:27;6.72;;;1.50;;
74471;SDS011;62920;53.572;10.050;2023-04-03T01:39:53;5.93;;;1.30;;
74471;SDS011;62920;53.572;10.050;2023-04-03T01:42:18;4.57;;;1.30;;
74471;SDS011;62920;53.572;10.050;2023-04-03T01:44:43;4.35;;;1.33;;
74471;SDS011;62920;53.572;10.050;2023-04-03T01:47:10;6.15;;;1.50;;
74471;SDS011;62920;53.572;10.050;2023-04-03T01:49:35;5.03;;;1.48;;
74471;SDS011;62920;53.572;10.050;2023-04-03T01:52:00;3.67;;;1.27;;
74471;SDS011;62920;53.572;10.050;2023-04-03T01:54:26;5.88;;;1.45;;
74471;SDS011;62920;53.572;10.050;2023-04-03T01:56:51;4.20;;;1.33;;
74471;SDS011;62920;53.572;10.050;2023-04-03T01:59:17;3.95;;;1.20;;
74471;SDS011;62920;53.572;10.050;2023-04-03T02:01:44;4.40;;;1.35;;
74471;SDS011;62920;53.572;10.050;2023-04-03T02:04:10;6.20;;;1.40;;
74471;SDS011;62920;53.572;10.050;2023-04-03T02:06:36;6.40;;;1.52;;
74471;SDS011;62920;53.572;10.050;2023-04-03T02:09:02;6.45;;;1.35;;
74471;SDS011;62920;53.572;10.050;2023-04-03T02:11:27;4.50;;;1.27;;
74471;SDS011;62920;53.572;10.050;2023-04-03T02:13:53;5.80;;;1.27;;
74471;SDS011;62920;53.572;10.050;2023-04-03T02:16:18;5.70;;;1.58;;
74471;SDS011;62920;53.572;10.050;2023-04-03T02:18:44;4.70;;;1.23;;
74471;SDS011;62920;53.572;10.050;2023-04-03T02:21:09;5.22;;;1.30;;
74471;SDS011;62920;53.572;10.050;2023-04-03T02:23:35;4.70;;;1.27;;
74471;SDS011;62920;53.572;10.050;2023-04-03T02:26:03;4.63;;;1.23;;
74471;SDS011;62920;53.572;10.050;2023-04-03T02:28:32;10.25;;;1.50;;
74471;SDS011;62920;53.572;10.050;2023-04-03T02:30:58;3.90;;;1.38;;
74471;SDS011;62920;53.572;10.050;2023-04-03T02:33:23;5.50;;;1.42;;
74471;SDS011;62920;53.572;10.050;2023-04-03T02:35:52;6.95;;;1.52;;
74471;SDS011;62920;53.572;10.050;2023-04-03T02:38:18;8.07;;;1.60;;
74471;SDS011;62920;53.572;10.050;2023-04-03T02:40:43;4.18;;;1.23;;
74471;SDS011;62920;53.572;10.050;2023-04-03T02:43:09;5.45;;;1.40;;
74471;SDS011;62920;53.572;10.050;2023-04-03T02:45:35;8.70;;;1.80;;
74471;SDS011;62920;53.572;10.050;2023-04-03T02:48:00;6.38;;;1.48;;
74471;SDS011;62920;53.572;10.050;2023-04-03T02:50:25;5.78;;;1.48;;
74471;SDS011;62920;53.572;10.050;2023-04-03T02:52:51;8.98;;;1.70;;
74471;SDS011;62920;53.572;10.050;2023-04-03T02:55:16;5.28;;;1.42;;
74471;SDS011;62920;53.572;10.050;2023-04-03T02:57:41;4.60;;;1.70;;
74471;SDS011;62920;53.572;10.050;2023-04-03T03:00:08;6.43;;;1.50;;
74471;SDS011;62920;53.572;10.050;2023-04-03T03:02:34;7.68;;;1.50;;
74471;SDS011;62920;53.572;10.050;2023-04-03T03:05:00;6.40;;;1.35;;
74471;SDS011;62920;53.572;10.050;2023-04-03T03:07:26;8.20;;;1.50;;
74471;SDS011;62920;53.572;10.050;2023-04-03T03:09:51;3.63;;;1.33;;
74471;SDS011;62920;53.572;10.050;2023-04-03T03:12:17;4.38;;;1.45;;
74471;SDS011;62920;53.572;10.050;2023-04-03T03:14:46;5.25;;;1.58;;
74471;SDS011;62920;53.572;10.050;2023-04-03T03:17:12;7.60;;;1.65;;
74471;SDS011;62920;53.572;10.050;2023-04-03T03:19:37;5.50;;;1.15;;
74471;SDS011;62920;53.572;10.050;2023-04-03T03:22:02;6.22;;;1.70;;
74471;SDS011;62920;53.572;10.050;2023-04-03T03:24:28;7.75;;;2.10;;
74471;SDS011;62920;53.572;10.050;2023-04-03T03:26:56;5.93;;;1.50;;
74471;SDS011;62920;53.572;10.050;2023-04-03T03:29:21;8.85;;;1.58;;
74471;SDS011;62920;53.572;10.050;2023-04-03T03:31:47;4.57;;;1.52;;
74471;SDS011;62920;53.572;10.050;2023-04-03T03:34:12;4.78;;;1.30;;
74471;SDS011;62920;53.572;10.050;2023-04-03T03:36:38;3.88;;;1.30;;
74471;SDS011;62920;53.572;10.050;2023-04-03T03:39:03;6.13;;;1.60;;
74471;SDS011;62920;53.572;10.050;2023-04-03T03:41:29;4.70;;;1.52;;
74471;SDS011;62920;53.572;10.050;2023-04-03T03:43:54;3.40;;;1.40;;
74471;SDS011;62920;53.572;10.050;2023-04-03T03:46:20;3.75;;;1.30;;
74471;SDS011;62920;53.572;10.050;2023-04-03T03:48:45;3.33;;;1.08;;
74471;SDS011;62920;53.572;10.050;2023-04-03T03:51:11;5.88;;;1.73;;
74471;SDS011;62920;53.572;10.050;2023-04-03T03:53:36;5.70;;;1.55;;
74471;SDS011;62920;53.572;10.050;2023-04-03T03:56:01;7.03;;;1.30;;
74471;SDS011;62920;53.572;10.050;2023-04-03T03:58:27;5.32;;;1.25;;
74471;SDS011;62920;53.572;10.050;2023-04-03T04:00:52;5.03;;;1.17;;
74471;SDS011;62920;53.572;10.050;2023-04-03T04:03:18;4.60;;;1.52;;
74471;SDS011;62920;53.572;10.050;2023-04-03T04:05:43;4.53;;;1.20;;
74471;SDS011;62920;53.572;10.050;2023-04-03T04:08:09;5.90;;;1.27;;
74471;SDS011;62920;53.572;10.050;2023-04-03T04:10:35;7.45;;;1.00;;
74471;SDS011;62920;53.572;10.050;2023-04-03T04:13:00;6.57;;;1.48;;
74471;SDS011;62920;53.572;10.050;2023-04-03T04:15:26;5.97;;;1.60;;
74471;SDS011;62920;53.572;10.050;2023-04-03T04:17:51;4.18;;;1.20;;
74471;SDS011;62920;53.572;10.050;2023-04-03T04:20:18;5.72;;;1.23;;
74471;SDS011;62920;53.572;10.050;2023-04-03T04:22:43;5.20;;;1.65;;
74471;SDS011;62920;53.572;10.050;2023-04-03T04:25:09;4.40;;;1.13;;
74471;SDS011;62920;53.572;10.050;2023-04-03T04:27:34;3.17;;;1.20;;
74471;SDS011;62920;53.572;10.050;2023-04-03T04:30:00;7.35;;;1.48;;
74471;SDS011;62920;53.572;10.050;2023-04-03T04:32:26;6.07;;;1.70;;
74471;SDS011;62920;53.572;10.050;2023-04-03T04:34:51;6.32;;;1.40;;
74471;SDS011;62920;53.572;10.050;2023-04-03T04:37:16;7.07;;;1.40;;
74471;SDS011;62920;53.572;10.050;2023-04-03T04:39:42;4.47;;;1.13;;
74471;SDS011;62920;53.572;10.050;2023-04-03T04:42:07;6.10;;;1.67;;
74471;SDS011;62920;53.572;10.050;2023-04-03T04:44:37;4.78;;;1.27;;
74471;SDS011;62920;53.572;10.050;2023-04-03T04:47:03;3.83;;;1.20;;
74471;SDS011;62920;53.572;10.050;2023-04-03T04:49:29;3.40;;;1.40;;
74471;SDS011;62920;53.572;10.050;2023-04-03T04:51:54;4.90;;;1.58;;
74471;SDS011;62920;53.572;10.050;2023-04-03T04:54:20;4.72;;;1.42;;
74471;SDS011;62920;53.572;10.050;2023-04-03T04:56:45;7.45;;;1.80;;
74471;SDS011;62920;53.572;10.050;2023-04-03T04:59:11;6.38;;;1.60;;
74471;SDS011;62920;53.572;10.050;2023-04-03T05:01:36;4.05;;;1.50;;
74471;SDS011;62920;53.572;10.050;2023-04-03T05:04:01;6.85;;;1.70;;
74471;SDS011;62920;53.572;10.050;2023-04-03T05:06:27;6.00;;;1.30;;
74471;SDS011;62920;53.572;10.050;2023-04-03T05:08:52;6.43;;;1.90;;
74471;SDS011;62920;53.572;10.050;2023-04-03T05:11:17;7.53;;;1.80;;
74471;SDS011;62920;53.572;10.050;2023-04-03T05:13:43;7.60;;;1.40;;
74471;SDS011;62920;53.572;10.050;2023-04-03T05:16:08;5.88;;;2.15;;
74471;SDS011;62920;53.572;10.050;2023-04-03T05:18:33;6.60;;;2.20;;
74471;SDS011;62920;53.572;10.050;2023-04-03T05:21:00;7.28;;;2.15;;
74471;SDS011;62920;53.572;10.050;2023-04-03T05:23:25;5.78;;;2.03;;
74471;SDS011;62920;53.572;10.050;2023-04-03T05:25:51;6.10;;;1.67;;
74471;SDS011;62920;53.572;10.050;2023-04-03T05:28:16;5.18;;;2.20;;
74471;SDS011;62920;53.572;10.050;2023-04-03T05:30:41;8.05;;;1.70;;
74471;SDS011;62920;53.572;10.050;2023-04-03T05:33:07;7.15;;;1.70;;
74471;SDS011;62920;53.572;10.050;2023-04-03T05:35:32;6.22;;;1.58;;
74471;SDS011;62920;53.572;10.050;2023-04-03T05:37:57;5.68;;;1.45;;
74471;SDS011;62920;53.572;10.050;2023-04-03T05:40:23;5.70;;;1.55;;
74471;SDS011;62920;53.572;10.050;2023-04-03T05:42:48;6.82;;;1.60;;
74471;SDS011;62920;53.572;10.050;2023-04-03T05:45:14;7.78;;;1.55;;
74471;SDS011;62920;53.572;10.050;2023-04-03T05:47:39;5.97;;;1.52;;
74471;SDS011;62920;53.572;10.050;2023-04-03T05:50:05;6.75;;;1.50;;
74471;SDS011;62920;53.572;10.050;2023-04-03T05:52:37;4.28;;;1.40;;
74471;SDS011;62920;53.572;10.050;2023-04-03T05:55:06;7.43;;;1.73;;
74471;SDS011;62920;53.572;10.050;2023-04-03T05:57:31;7.63;;;1.63;;
74471;SDS011;62920;53.572;10.050;2023-04-03T05:59:57;10.02;;;2.00;;
74471;SDS011;62920;53.572;10.050;2023-04-03T06:02:23;5.25;;;1.92;;
74471;SDS011;62920;53.572;10.050;2023-04-03T06:04:49;7.82;;;2.05;;
74471;SDS011;62920;53.572;10.050;2023-04-03T06:07:16;5.28;;;1.70;;
74471;SDS011;62920;53.572;10.050;2023-04-03T06:09:43;6.50;;;1.52;;
74471;SDS011;62920;53.572;10.050;2023-04-03T06:12:09;8.30;;;1.50;;
74471;SDS011;62920;53.572;10.050;2023-04-03T06:14:35;4.95;;;1.60;;
74471;SDS011;62920;53.572;10.050;2023-04-03T06:17:00;4.43;;;1.10;;
74471;SDS011;62920;53.572;10.050;2023-04-03T06:19:26;5.60;;;1.42;;
74471;SDS011;62920;53.572;10.050;2023-04-03T06:21:52;8.15;;;1.63;;
74471;SDS011;62920;53.572;10.050;2023-04-03T06:24:18;9.48;;;1.92;;
74471;SDS011;62920;53.572;10.050;2023-04-03T06:29:10;7.53;;;1.70;;
74471;SDS011;62920;53.572;10.050;2023-04-03T06:31:36;3.53;;;1.17;;
74471;SDS011;62920;53.572;10.050;2023-04-03T06:34:02;4.00;;;1.20;;
74471;SDS011;62920;53.572;10.050;2023-04-03T06:36:28;4.63;;;1.17;;
74471;SDS011;62920;53.572;10.050;2023-04-03T06:38:54;7.07;;;1.30;;
74471;SDS011;62920;53.572;10.050;2023-04-03T06:41:19;4.00;;;1.10;;
74471;SDS011;62920;53.572;10.050;2023-04-03T06:43:45;3.58;;;1.02;;
74471;SDS011;62920;53.572;10.050;2023-04-03T06:46:17;3.83;;;1.25;;
74471;SDS011;62920;53.572;10.050;2023-04-03T06:48:44;3.88;;;1.20;;
74471;SDS011;62920;53.572;10.050;2023-04-03T06:51:15;4.00;;;1.13;;
74471;SDS011;62920;53.572;10.050;2023-04-03T06:53:43;10.25;;;1.25;;
74471;SDS011;62920;53.572;10.050;2023-04-03T06:56:09;5.20;;;1.45;;
74471;SDS011;62920;53.572;10.050;2023-04-03T06:58:35;5.60;;;0.90;;
74471;SDS011;62920;53.572;10.050;2023-04-03T07:01:01;5.20;;;1.40;;
74471;SDS011;62920;53.572;10.050;2023-04-03T07:03:26;6.05;;;1.15;;
74471;SDS011;62920;53.572;10.050;2023-04-03T07:05:51;7.43;;;1.40;;
74471;SDS011;62920;53.572;10.050;2023-04-03T07:08:17;2.70;;;1.10;;
74471;SDS011;62920;53.572;10.050;2023-04-03T07:10:43;6.30;;;1.38;;
74471;SDS011;62920;53.572;10.050;2023-04-03T07:13:08;2.40;;;0.90;;
74471;SDS011;62920;53.572;10.050;2023-04-03T07:15:34;5.63;;;0.93;;
74471;SDS011;62920;53.572;10.050;2023-04-03T07:18:01;3.28;;;1.00;;
74471;SDS011;62920;53.572;10.050;2023-04-03T07:20:26;2.05;;;0.70;;
74471;SDS011;62920;53.572;10.050;2023-04-03T07:22:51;3.00;;;0.73;;
74471;SDS011;62920;53.572;10.050;2023-04-03T07:25:17;6.65;;;0.80;;
74471;SDS011;62920;53.572;10.050;2023-04-03T07:27:42;4.13;;;0.88;;
74471;SDS011;62920;53.572;10.050;2023-04-03T07:30:08;9.40;;;1.17;;
74471;SDS011;62920;53.572;10.050;2023-04-03T07:32:34;3.72;;;1.00;;
74471;SDS011;62920;53.572;10.050;2023-04-03T07:35:00;3.35;;;0.88;;
74471;SDS011;62920;53.572;10.050;2023-04-03T07:37:25;2.85;;;0.63;;
74471;SDS011;62920;53.572;10.050;2023-04-03T07:39:51;1.90;;;0.55;;
74471;SDS011;62920;53.572;10.050;2023-04-03T07:42:16;3.92;;;0.73;;
74471;SDS011;62920;53.572;10.050;2023-04-03T07:44:42;5.00;;;1.05;;
74471;SDS011;62920;53.572;10.050;2023-04-03T07:47:07;3.67;;;0.75;;
74471;SDS011;62920;53.572;10.050;2023-04-03T07:49:33;2.35;;;0.60;;
74471;SDS011;62920;53.572;10.050;2023-04-03T07:51:59;5.03;;;0.85;;
74471;SDS011;62920;53.572;10.050;2023-04-03T07:54:25;6.13;;;0.80;;
74471;SDS011;62920;53.572;10.050;2023-04-03T07:56:50;3.47;;;0.80;;
74471;SDS011;62920;53.572;10.050;2023-04-03T07:59:16;6.32;;;1.00;;
74471;SDS011;62920;53.572;10.050;2023-04-03T08:01:41;3.55;;;0.70;;
74471;SDS011;62920;53.572;10.050;2023-04-03T08:04:07;5.40;;;0.80;;
74471;SDS011;62920;53.572;10.050;2023-04-03T08:06:32;2.67;;;0.70;;
74471;SDS011;62920;53.572;10.050;2023-04-03T08:09:00;5.78;;;0.90;;
74471;SDS011;62920;53.572;10.050;2023-04-03T08:11:26;2.95;;;0.63;;
74471;SDS011;62920;53.572;10.050;2023-04-03T08:13:52;2.65;;;0.68;;
74471;SDS011;62920;53.572;10.050;2023-04-03T08:16:18;3.35;;;0.73;;
74471;SDS011;62920;53.572;10.050;2023-04-03T08:18:46;4.18;;;0.65;;
74471;SDS011;62920;53.572;10.050;2023-04-03T08:21:11;1.77;;;0.50;;
74471;SDS011;62920;53.572;10.050;2023-04-03T08:23:38;5.90;;;0.80;;
74471;SDS011;62920;53.572;10.050;2023-04-03T08:26:13;4.75;;;0.80;;
74471;SDS011;62920;53.572;10.050;2023-04-03T08:28:40;5.40;;;0.80;;
74471;SDS011;62920;53.572;10.050;2023-04-03T08:31:07;3.90;;;0.70;;
74471;SDS011;62920;53.572;10.050;2023-04-03T08:33:37;4.72;;;0.77;;
74471;SDS011;62920;53.572;10.050;2023-04-03T08:36:04;4.25;;;0.75;;
74471;SDS011;62920;53.572;10.050;2023-04-03T08:38:30;5.80;;;1.10;;
74471;SDS011;62920;53.572;10.050;2023-04-03T08:41:00;2.50;;;0.50;;
74471;SDS011;62920;53.572;10.050;2023-04-03T08:46:13;3.83;;;0.63;;
74471;SDS011;62920;53.572;10.050;2023-04-03T08:48:41;2.42;;;0.57;;
74471;SDS011;62920;53.572;10.050;2023-04-03T08:51:12;2.95;;;0.63;;
74471;SDS011;62920;53.572;10.050;2023-04-03T08:53:41;2.92;;;0.60;;
74471;SDS011;62920;53.572;10.050;2023-04-03T08:56:10;3.90;;;0.65;;
74471;SDS011;62920;53.572;10.050;2023-04-03T08:58:49;3.53;;;0.50;;
74471;SDS011;62920;53.572;10.050;2023-04-03T09:01:23;2.58;;;0.65;;
74471;SDS011;62920;53.572;10.050;2023-04-03T09:03:51;4.88;;;0.80;;
74471;SDS011;62920;53.572;10.050;2023-04-03T09:06:20;2.92;;;0.70;;
74471;SDS011;62920;53.572;10.050;2023-04-03T09:14:39;4.20;;;0.95;;
74471;SDS011;62920;53.572;10.050;2023-04-03T09:17:14;3.08;;;0.60;;
74471;SDS011;62920;53.572;10.050;2023-04-03T09:19:52;2.83;;;0.73;;
74471;SDS011;62920;53.572;10.050;2023-04-03T09:22:27;3.38;;;0.80;;
74471;SDS011;62920;53.572;10.050;2023-04-03T09:27:42;2.33;;;0.68;;
74471;SDS011;62920;53.572;10.050;2023-04-03T09:30:15;3.80;;;0.90;;
74471;SDS011;62920;53.572;10.050;2023-04-03T09:32:41;3.20;;;0.70;;
74471;SDS011;62920;53.572;10.050;2023-04-03T09:35:19;2.30;;;0.60;;
74471;SDS011;62920;53.572;10.050;2023-04-03T09:37:48;5.18;;;0.70;;
74471;SDS011;62920;53.572;10.050;2023-04-03T09:40:33;3.15;;;0.50;;
74471;SDS011;62920;53.572;10.050;2023-04-03T09:43:02;3.60;;;0.70;;
74471;SDS011;62920;53.572;10.050;2023-04-03T09:45:44;2.15;;;0.80;;
74471;SDS011;62920;53.572;10.050;2023-04-03T09:53:38;2.97;;;0.50;;
74471;SDS011;62920;53.572;10.050;2023-04-03T09:58:39;1.48;;;0.30;;
74471;SDS011;62920;53.572;10.050;2023-04-03T10:01:20;2.00;;;0.50;;
74471;SDS011;62920;53.572;10.050;2023-04-03T10:04:03;2.75;;;0.57;;
74471;SDS011;62920;53.572;10.050;2023-04-03T10:06:30;4.15;;;0.60;;
74471;SDS011;62920;53.572;10.050;2023-04-03T10:09:03;2.63;;;0.60;;
74471;SDS011;62920;53.572;10.050;2023-04-03T10:11:47;2.55;;;0.63;;
74471;SDS011;62920;53.572;10.050;2023-04-03T10:14:26;2.40;;;0.40;;
74471;SDS011;62920;53.572;10.050;2023-04-03T10:29:59;3.05;;;0.57;;
74471;SDS011;62920;53.572;10.050;2023-04-03T10:40:32;1.92;;;0.68;;
74471;SDS011;62920;53.572;10.050;2023-04-03T10:45:59;1.63;;;0.50;;
74471;SDS011;62920;53.572;10.050;2023-04-03T10:48:44;2.00;;;0.50;;
74471;SDS011;62920;53.572;10.050;2023-04-03T10:51:29;3.30;;;0.63;;
74471;SDS011;62920;53.572;10.050;2023-04-03T10:56:38;3.58;;;0.50;;
74471;SDS011;62920;53.572;10.050;2023-04-03T11:04:33;2.38;;;0.40;;
74471;SDS011;62920;53.572;10.050;2023-04-03T11:07:22;2.42;;;0.50;;
74471;SDS011;62920;53.572;10.050;2023-04-03T11:09:48;3.50;;;0.80;;
74471;SDS011;62920;53.572;10.050;2023-04-03T11:12:17;3.25;;;0.80;;
74471;SDS011;62920;53.572;10.050;2023-04-03T11:14:46;2.63;;;0.68;;
74471;SDS011;62920;53.572;10.050;2023-04-03T11:22:28;3.05;;;0.80;;
74471;SDS011;62920;53.572;10.050;2023-04-03T11:24:58;2.60;;;0.70;;
74471;SDS011;62920;53.572;10.050;2023-04-03T11:29:57;2.78;;;0.55;;
74471;SDS011;62920;53.572;10.050;2023-04-03T11:32:29;4.03;;;0.70;;
74471;SDS011;62920;53.572;10.050;2023-04-03T11:35:00;2.40;;;0.73;;
74471;SDS011;62920;53.572;10.050;2023-04-03T11:37:34;2.55;;;0.60;;
74471;SDS011;62920;53.572;10.050;2023-04-03T11:40:05;3.72;;;0.80;;
74471;SDS011;62920;53.572;10.050;2023-04-03T11:42:36;2.95;;;0.68;;
74471;SDS011;62920;53.572;10.050;2023-04-03T11:45:16;6.80;;;0.90;;
74471;SDS011;62920;53.572;10.050;2023-04-03T12:13:40;4.22;;;0.90;;
74471;SDS011;62920;53.572;10.050;2023-04-03T12:16:07;4.28;;;1.42;;
74471;SDS011;62920;53.572;10.050;2023-04-03T12:22:05;3.92;;;0.70;;
74471;SDS011;62920;53.572;10.050;2023-04-03T12:47:45;1.88;;;0.50;;
74471;SDS011;62920;53.572;10.050;2023-04-03T12:50:16;2.58;;;0.43;;
74471;SDS011;62920;53.572;10.050;2023-04-03T12:52:47;2.45;;;0.60;;
74471;SDS011;62920;53.572;10.050;2023-04-03T12:55:24;1.83;;;0.40;;
74471;SDS011;62920;53.572;10.050;2023-04-03T12:57:49;3.22;;;0.60;;
74471;SDS011;62920;53.572;10.050;2023-04-03T13:00:25;3.17;;;0.70;;
74471;SDS011;62920;53.572;10.050;2023-04-03T13:02:53;3.30;;;0.50;;
74471;SDS011;62920;53.572;10.050;2023-04-03T13:05:19;3.20;;;0.70;;
74471;SDS011;62920;53.572;10.050;2023-04-03T13:07:54;3.78;;;0.60;;
74471;SDS011;62920;53.572;10.050;2023-04-03T13:10:23;2.42;;;0.50;;
74471;SDS011;62920;53.572;10.050;2023-04-03T13:12:49;2.45;;;0.52;;
74471;SDS011;62920;53.572;10.050;2023-04-03T13:17:47;2.60;;;0.50;;
74471;SDS011;62920;53.572;10.050;2023-04-03T13:20:35;2.72;;;0.60;;
74471;SDS011;62920;53.572;10.050;2023-04-03T13:23:07;5.70;;;0.70;;
74471;SDS011;62920;53.572;10.050;2023-04-03T13:25:35;3.58;;;0.75;;
74471;SDS011;62920;53.572;10.050;2023-04-03T13:28:03;4.40;;;0.68;;
74471;SDS011;62920;53.572;10.050;2023-04-03T13:30:32;2.58;;;0.50;;
74471;SDS011;62920;53.572;10.050;2023-04-03T13:33:02;1.88;;;0.50;;
74471;SDS011;62920;53.572;10.050;2023-04-03T13:38:07;2.50;;;0.50;;
74471;SDS011;62920;53.572;10.050;2023-04-03T13:43:18;3.13;;;0.65;;
74471;SDS011;62920;53.572;10.050;2023-04-03T13:46:00;4.05;;;0.77;;
74471;SDS011;62920;53.572;10.050;2023-04-03T13:48:46;2.17;;;0.50;;
74471;SDS011;62920;53.572;10.050;2023-04-03T13:56:41;2.97;;;0.70;;
74471;SDS011;62920;53.572;10.050;2023-04-03T14:01:45;3.50;;;0.65;;
74471;SDS011;62920;53.572;10.050;2023-04-03T14:04:19;2.20;;;0.47;;
74471;SDS011;62920;53.572;10.050;2023-04-03T14:06:49;3.28;;;0.60;;
74471;SDS011;62920;53.572;10.050;2023-04-03T14:09:15;3.00;;;0.60;;
74471;SDS011;62920;53.572;10.050;2023-04-03T14:11:41;1.70;;;0.55;;
74471;SDS011;62920;53.572;10.050;2023-04-03T14:14:21;4.20;;;0.60;;
74471;SDS011;62920;53.572;10.050;2023-04-03T14:16:59;3.45;;;0.70;;
74471;SDS011;62920;53.572;10.050;2023-04-03T14:19:27;4.07;;;0.75;;
74471;SDS011;62920;53.572;10.050;2023-04-03T14:21:55;4.75;;;0.80;;
74471;SDS011;62920;53.572;10.050;2023-04-03T14:24:20;4.18;;;0.57;;
74471;SDS011;62920;53.572;10.050;2023-04-03T14:26:47;2.28;;;0.50;;
74471;SDS011;62920;53.572;10.050;2023-04-03T14:29:14;4.35;;;0.75;;
74471;SDS011;62920;53.572;10.050;2023-04-03T14:31:41;2.33;;;0.80;;
74471;SDS011;62920;53.572;10.050;2023-04-03T14:34:08;3.53;;;0.60;;
74471;SDS011;62920;53.572;10.050;2023-04-03T14:36:35;3.05;;;0.70;;
74471;SDS011;62920;53.572;10.050;2023-04-03T14:39:01;3.78;;;0.80;;
74471;SDS011;62920;53.572;10.050;2023-04-03T14:41:28;2.55;;;0.63;;
74471;SDS011;62920;53.572;10.050;2023-04-03T14:43:54;3.85;;;0.70;;
74471;SDS011;62920;53.572;10.050;2023-04-03T14:46:22;3.95;;;0.90;;
74471;SDS011;62920;53.572;10.050;2023-04-03T14:48:58;3.58;;;0.73;;
74471;SDS011;62920;53.572;10.050;2023-04-03T14:51:24;1.60;;;0.47;;
74471;SDS011;62920;53.572;10.050;2023-04-03T14:53:50;2.35;;;0.60;;
74471;SDS011;62920;53.572;10.050;2023-04-03T14:56:26;4.00;;;0.68;;
74471;SDS011;62920;53.572;10.050;2023-04-03T14:58:57;4.35;;;0.85;;
74471;SDS011;62920;53.572;10.050;2023-04-03T15:01:24;3.75;;;0.90;;
74471;SDS011;62920;53.572;10.050;2023-04-03T15:03:50;4.22;;;1.20;;
74471;SDS011;62920;53.572;10.050;2023-04-03T15:06:16;4.05;;;0.65;;
74471;SDS011;62920;53.572;10.050;2023-04-03T15:08:42;4.53;;;0.75;;
74471;SDS011;62920;53.572;10.050;2023-04-03T15:11:08;2.35;;;0.68;;
74471;SDS011;62920;53.572;10.050;2023-04-03T15:16:00;2.25;;;0.77;;
74471;SDS011;62920;53.572;10.050;2023-04-03T15:18:26;3.17;;;0.77;;
74471;SDS011;62920;53.572;10.050;2023-04-03T15:20:53;3.30;;;0.77;;
74471;SDS011;62920;53.572;10.050;2023-04-03T15:23:19;3.65;;;0.60;;
74471;SDS011;62920;53.572;10.050;2023-04-03T15:25:46;4.43;;;0.60;;
74471;SDS011;62920;53.572;10.050;2023-04-03T15:28:22;2.33;;;0.70;;
74471;SDS011;62920;53.572;10.050;2023-04-03T15:30:50;3.83;;;0.73;;
74471;SDS011;62920;53.572;10.050;2023-04-03T15:33:16;2.67;;;0.57;;
74471;SDS011;62920;53.572;10.050;2023-04-03T15:35:42;3.25;;;0.90;;
74471;SDS011;62920;53.572;10.050;2023-04-03T15:38:07;5.03;;;1.02;;
74471;SDS011;62920;53.572;10.050;2023-04-03T15:40:33;3.10;;;0.73;;
74471;SDS011;62920;53.572;10.050;2023-04-03T15:42:58;2.83;;;0.75;;
74471;SDS011;62920;53.572;10.050;2023-04-03T15:45:23;4.55;;;0.70;;
74471;SDS011;62920;53.572;10.050;2023-04-03T15:47:49;4.60;;;0.80;;
74471;SDS011;62920;53.572;10.050;2023-04-03T15:50:15;6.80;;;0.88;;
74471;SDS011;62920;53.572;10.050;2023-04-03T15:52:40;2.80;;;0.70;;
74471;SDS011;62920;53.572;10.050;2023-04-03T15:55:06;2.75;;;0.57;;
74471;SDS011;62920;53.572;10.050;2023-04-03T15:57:31;2.50;;;0.60;;
74471;SDS011;62920;53.572;10.050;2023-04-03T15:59:56;5.20;;;0.88;;
74471;SDS011;62920;53.572;10.050;2023-04-03T16:02:22;2.50;;;0.60;;
74471;SDS011;62920;53.572;10.050;2023-04-03T16:04:48;4.93;;;1.17;;
74471;SDS011;62920;53.572;10.050;2023-04-03T16:07:13;3.95;;;1.08;;
74471;SDS011;62920;53.572;10.050;2023-04-03T16:09:39;4.22;;;0.80;;
74471;SDS011;62920;53.572;10.050;2023-04-03T16:12:05;3.92;;;0.70;;
74471;SDS011;62920;53.572;10.050;2023-04-03T16:14:30;4.60;;;0.70;;
74471;SDS011;62920;53.572;10.050;2023-04-03T16:16:56;3.63;;;0.75;;
74471;SDS011;62920;53.572;10.050;2023-04-03T16:19:22;3.40;;;0.75;;
74471;SDS011;62920;53.572;10.050;2023-04-03T16:21:48;5.20;;;0.77;;
74471;SDS011;62920;53.572;10.050;2023-04-03T16:24:13;3.10;;;0.70;;
74471;SDS011;62920;53.572;10.050;2023-04-03T16:26:38;1.88;;;0.63;;
74471;SDS011;62920;53.572;10.050;2023-04-03T16:29:04;2.42;;;0.65;;
74471;SDS011;62920;53.572;10.050;2023-04-03T16:31:29;3.67;;;0.90;;
74471;SDS011;62920;53.572;10.050;2023-04-03T16:33:57;5.22;;;1.33;;
74471;SDS011;62920;53.572;10.050;2023-04-03T16:36:23;3.20;;;0.60;;
74471;SDS011;62920;53.572;10.050;2023-04-03T16:41:15;5.25;;;1.20;;
74471;SDS011;62920;53.572;10.050;2023-04-03T16:43:40;3.63;;;0.80;;
74471;SDS011;62920;53.572;10.050;2023-04-03T16:46:05;2.72;;;1.00;;
74471;SDS011;62920;53.572;10.050;2023-04-03T16:48:31;5.00;;;1.10;;
74471;SDS011;62920;53.572;10.050;2023-04-03T16:50:58;4.82;;;0.95;;
74471;SDS011;62920;53.572;10.050;2023-04-03T16:53:23;8.32;;;1.85;;
74471;SDS011;62920;53.572;10.050;2023-04-03T16:55:50;4.28;;;0.70;;
74471;SDS011;62920;53.572;10.050;2023-04-03T16:58:15;3.05;;;0.95;;